Time;durP1;ratioP1;P1;durP2;ratioP2;P2;SDS_P1;SDS_P2;PMS_P1;PMS_P2;Temp;Humidity;BMP_temperature;BMP_pressure;BME280_temperature;BME280_humidity;BME280_pressure;Samples;Min_cycle;Max_cycle;Signal;HPM_P1;HPM_P2
2023/04/17 00:00:04;;;;;;;6.63;5.85;;;;;;;;;;5046018;28;20041;-73
2023/04/17 00:02:31;;;;;;;9.73;6.78;;;;;;;;;;5045904;28;20489;-73
2023/04/17 00:04:57;;;;;;;11.90;7.22;;;;;;;;;;5046781;28;20494;-73
2023/04/17 00:07:23;;;;;;;10.95;9.30;;;;;;;;;;5044057;28;20041;-73
2023/04/17 00:09:49;;;;;;;12.00;9.00;;;;;;;;;;5046791;28;20479;-73
2023/04/17 00:12:15;;;;;;;7.72;6.75;;;;;;;;;;5045122;28;20103;-73
2023/04/17 00:14:41;;;;;;;7.32;6.40;;;;;;;;;;5045896;28;20636;-73
2023/04/17 00:17:07;;;;;;;8.30;6.75;;;;;;;;;;5046310;28;20037;-73
2023/04/17 00:19:33;;;;;;;14.05;10.50;;;;;;;;;;5045957;28;20419;-73
2023/04/17 00:21:59;;;;;;;15.60;12.60;;;;;;;;;;5045661;28;20041;-73
2023/04/17 00:24:25;;;;;;;17.48;12.73;;;;;;;;;;5045987;28;20664;-73
2023/04/17 00:26:51;;;;;;;13.02;10.32;;;;;;;;;;5046077;28;20045;-73
2023/04/17 00:29:17;;;;;;;11.00;8.93;;;;;;;;;;5045468;28;20041;-72
2023/04/17 00:31:43;;;;;;;9.32;7.38;;;;;;;;;;5045581;28;20064;-73
2023/04/17 00:34:09;;;;;;;11.27;8.82;;;;;;;;;;5045063;28;20780;-73
2023/04/17 00:36:35;;;;;;;12.05;9.75;;;;;;;;;;5045537;28;20115;-74
2023/04/17 00:39:01;;;;;;;14.15;10.30;;;;;;;;;;5046305;28;20462;-73
2023/04/17 00:41:27;;;;;;;12.98;10.27;;;;;;;;;;5045310;28;20056;-73
2023/04/17 00:43:53;;;;;;;11.63;10.02;;;;;;;;;;5045764;28;20095;-73
2023/04/17 00:46:19;;;;;;;9.85;8.05;;;;;;;;;;5045717;28;20044;-73
2023/04/17 00:48:45;;;;;;;8.38;6.93;;;;;;;;;;5043548;28;20052;-73
2023/04/17 00:51:11;;;;;;;6.57;5.85;;;;;;;;;;5044529;28;20124;-73
2023/04/17 00:53:37;;;;;;;7.03;5.68;;;;;;;;;;5044203;28;20048;-73
2023/04/17 00:56:05;;;;;;;9.50;6.90;;;;;;;;;;5045677;28;20056;-73
2023/04/17 00:58:31;;;;;;;6.22;5.50;;;;;;;;;;5045138;28;20045;-73
2023/04/17 01:00:57;;;;;;;6.90;5.35;;;;;;;;;;5045199;28;20037;-73
2023/04/17 01:03:23;;;;;;;9.25;7.18;;;;;;;;;;5044862;28;20049;-73
2023/04/17 01:05:50;;;;;;;7.50;6.18;;;;;;;;;;5046017;28;20103;-73
2023/04/17 01:08:16;;;;;;;6.82;5.80;;;;;;;;;;5045890;28;20496;-73
2023/04/17 01:10:42;;;;;;;5.20;4.70;;;;;;;;;;5043496;28;20044;-72
2023/04/17 01:13:08;;;;;;;5.70;5.10;;;;;;;;;;5043740;28;20059;-73
2023/04/17 01:15:35;;;;;;;5.03;4.47;;;;;;;;;;5045027;28;20055;-73
2023/04/17 01:18:02;;;;;;;5.22;4.57;;;;;;;;;;5044888;28;20056;-73
2023/04/17 01:20:31;;;;;;;7.28;5.60;;;;;;;;;;5043832;28;20053;-73
2023/04/17 01:22:57;;;;;;;5.10;4.57;;;;;;;;;;5044696;28;20084;-72
2023/04/17 01:25:24;;;;;;;5.50;5.00;;;;;;;;;;5043891;28;20433;-73
2023/04/17 01:27:50;;;;;;;8.70;7.55;;;;;;;;;;5044825;28;20045;-73
2023/04/17 01:30:16;;;;;;;8.93;7.30;;;;;;;;;;5044735;28;20053;-72
2023/04/17 01:32:42;;;;;;;11.60;9.98;;;;;;;;;;5044981;28;20392;-73
2023/04/17 01:35:08;;;;;;;12.68;9.80;;;;;;;;;;5044760;28;20079;-73
2023/04/17 01:37:35;;;;;;;10.15;8.43;;;;;;;;;;5043050;28;20044;-73
2023/04/17 01:40:01;;;;;;;11.18;9.45;;;;;;;;;;5044978;28;20048;-72
2023/04/17 01:42:27;;;;;;;11.95;8.65;;;;;;;;;;5044094;28;20037;-73
2023/04/17 01:44:53;;;;;;;8.02;7.22;;;;;;;;;;5043653;28;20442;-73
2023/04/17 01:47:19;;;;;;;10.98;8.93;;;;;;;;;;5044456;28;20045;-73
2023/04/17 01:49:45;;;;;;;10.07;8.45;;;;;;;;;;5044655;28;20047;-73
2023/04/17 01:52:11;;;;;;;6.88;6.00;;;;;;;;;;5044137;28;20053;-73
2023/04/17 01:54:37;;;;;;;6.40;5.30;;;;;;;;;;5044521;28;20384;-73
2023/04/17 01:57:03;;;;;;;5.15;4.65;;;;;;;;;;5042866;28;20044;-73
2023/04/17 01:59:29;;;;;;;4.78;4.28;;;;;;;;;;5042954;28;20136;-73
2023/04/17 02:01:56;;;;;;;4.03;3.63;;;;;;;;;;5042686;28;20133;-72
2023/04/17 02:04:22;;;;;;;3.60;3.30;;;;;;;;;;5044640;28;20438;-73
2023/04/17 02:06:48;;;;;;;3.45;3.15;;;;;;;;;;5040642;28;20048;-73
2023/04/17 02:09:13;;;;;;;5.95;4.65;;;;;;;;;;5044800;28;20047;-73
2023/04/17 02:11:39;;;;;;;4.65;4.10;;;;;;;;;;5042486;28;20201;-73
2023/04/17 02:14:06;;;;;;;4.80;4.10;;;;;;;;;;5043164;28;20095;-73
2023/04/17 02:16:32;;;;;;;6.00;4.88;;;;;;;;;;5044626;28;20495;-72
2023/04/17 02:18:58;;;;;;;4.20;3.75;;;;;;;;;;5043126;28;20041;-73
2023/04/17 02:21:25;;;;;;;4.32;3.92;;;;;;;;;;5043710;28;20045;-73
2023/04/17 02:23:52;;;;;;;5.65;5.05;;;;;;;;;;5043942;28;20659;-73
2023/04/17 02:26:18;;;;;;;5.45;4.78;;;;;;;;;;5043931;28;20049;-73
2023/04/17 02:28:44;;;;;;;4.55;3.83;;;;;;;;;;5044267;28;20118;-73
2023/04/17 02:31:11;;;;;;;3.55;3.25;;;;;;;;;;5043407;28;20525;-72
2023/04/17 02:33:37;;;;;;;3.72;2.97;;;;;;;;;;5043698;28;20060;-73
2023/04/17 02:36:04;;;;;;;3.15;2.78;;;;;;;;;;5044647;28;20037;-73
2023/04/17 02:38:30;;;;;;;3.60;2.90;;;;;;;;;;5044020;28;20135;-73
2023/04/17 02:40:57;;;;;;;4.70;4.07;;;;;;;;;;5043225;28;20487;-73
2023/04/17 02:43:23;;;;;;;5.55;4.60;;;;;;;;;;5043890;28;20483;-73
2023/04/17 02:45:49;;;;;;;4.10;3.45;;;;;;;;;;5044448;28;20045;-73
2023/04/17 02:48:15;;;;;;;4.13;3.72;;;;;;;;;;5043585;28;20083;-73
2023/04/17 02:50:41;;;;;;;3.90;3.50;;;;;;;;;;5042381;28;20739;-73
2023/04/17 02:53:08;;;;;;;4.38;3.97;;;;;;;;;;5044129;28;20076;-73
2023/04/17 02:55:34;;;;;;;4.43;4.03;;;;;;;;;;5043401;28;20530;-73
2023/04/17 02:58:00;;;;;;;2.80;2.60;;;;;;;;;;5043701;28;20044;-73
2023/04/17 03:00:26;;;;;;;3.83;3.45;;;;;;;;;;5043651;28;20486;-73
2023/04/17 03:02:52;;;;;;;4.10;3.70;;;;;;;;;;5043476;28;20073;-73
2023/04/17 03:05:28;;;;;;;5.30;4.35;;;;;;;;;;5044633;28;20083;-73
2023/04/17 03:07:54;;;;;;;8.77;6.60;;;;;;;;;;5044179;28;20063;-73
2023/04/17 03:10:20;;;;;;;6.88;5.68;;;;;;;;;;5042812;28;20135;-73
2023/04/17 03:12:46;;;;;;;8.45;7.00;;;;;;;;;;5045019;28;20045;-73
2023/04/17 03:15:12;;;;;;;9.88;7.45;;;;;;;;;;5042477;28;20053;-72
2023/04/17 03:17:38;;;;;;;7.65;6.65;;;;;;;;;;5046588;28;20106;-73
2023/04/17 03:20:06;;;;;;;10.10;7.93;;;;;;;;;;5047111;28;20544;-72
2023/04/17 03:22:32;;;;;;;7.32;6.43;;;;;;;;;;5047331;28;20405;-73
2023/04/17 03:24:58;;;;;;;10.07;7.22;;;;;;;;;;5045293;28;20048;-72
2023/04/17 03:27:24;;;;;;;8.95;7.40;;;;;;;;;;5046164;28;20567;-73
2023/04/17 03:29:50;;;;;;;9.82;7.28;;;;;;;;;;5046210;28;20091;-73
2023/04/17 03:32:17;;;;;;;7.45;5.95;;;;;;;;;;5046492;28;20563;-73
2023/04/17 03:34:43;;;;;;;9.07;7.07;;;;;;;;;;5045449;28;20045;-73
2023/04/17 03:37:09;;;;;;;7.20;5.30;;;;;;;;;;5045035;28;20056;-72
2023/04/17 03:39:35;;;;;;;7.28;6.18;;;;;;;;;;5047189;28;20076;-73
2023/04/17 03:42:01;;;;;;;5.45;4.88;;;;;;;;;;5047411;28;20080;-72
2023/04/17 03:44:27;;;;;;;4.95;4.18;;;;;;;;;;5046063;28;20053;-73
2023/04/17 03:46:53;;;;;;;12.15;7.60;;;;;;;;;;5045121;28;20052;-72
2023/04/17 03:49:19;;;;;;;8.45;7.00;;;;;;;;;;5046751;28;20557;-72
2023/04/17 03:51:45;;;;;;;6.00;5.43;;;;;;;;;;5045939;28;20095;-73
2023/04/17 03:54:11;;;;;;;5.00;4.50;;;;;;;;;;5046968;28;20346;-73
2023/04/17 03:56:37;;;;;;;4.47;3.75;;;;;;;;;;5046307;28;20135;-73
2023/04/17 03:59:04;;;;;;;5.43;4.75;;;;;;;;;;5044590;28;20544;-72
2023/04/17 04:01:31;;;;;;;7.15;5.57;;;;;;;;;;5046233;28;20044;-73
2023/04/17 04:03:57;;;;;;;9.82;7.65;;;;;;;;;;5045976;28;20513;-73
2023/04/17 04:06:23;;;;;;;7.47;6.18;;;;;;;;;;5045744;28;20387;-73
2023/04/17 04:08:50;;;;;;;7.43;5.68;;;;;;;;;;5046205;28;20052;-73
2023/04/17 04:11:16;;;;;;;8.95;7.18;;;;;;;;;;5043987;28;20699;-72
2023/04/17 04:13:42;;;;;;;7.07;5.72;;;;;;;;;;5045193;28;20068;-73
2023/04/17 04:16:08;;;;;;;8.13;6.82;;;;;;;;;;5046075;28;20072;-72
2023/04/17 04:18:35;;;;;;;6.20;5.07;;;;;;;;;;5046651;28;20044;-72
2023/04/17 04:21:01;;;;;;;6.43;5.70;;;;;;;;;;5045440;28;20593;-73
2023/04/17 04:23:29;;;;;;;6.63;5.72;;;;;;;;;;5045324;28;20124;-73
2023/04/17 04:25:55;;;;;;;5.90;4.82;;;;;;;;;;5045922;28;20045;-73
2023/04/17 04:28:22;;;;;;;7.20;5.60;;;;;;;;;;5045313;28;20114;-73
2023/04/17 04:30:49;;;;;;;10.80;8.13;;;;;;;;;;5044772;28;20053;-73
2023/04/17 04:33:19;;;;;;;14.57;9.85;;;;;;;;;;5045004;28;20072;-73
2023/04/17 04:35:46;;;;;;;9.85;7.85;;;;;;;;;;5045295;28;20064;-73
2023/04/17 04:38:12;;;;;;;13.30;9.80;;;;;;;;;;5045085;28;20547;-72
2023/04/17 04:40:38;;;;;;;9.57;8.55;;;;;;;;;;5043621;28;20091;-73
2023/04/17 04:43:05;;;;;;;9.70;6.97;;;;;;;;;;5044825;28;20048;-73
2023/04/17 04:45:31;;;;;;;13.23;9.30;;;;;;;;;;5043625;28;20070;-73
2023/04/17 04:47:57;;;;;;;9.45;6.60;;;;;;;;;;5045059;28;20458;-73
2023/04/17 04:50:23;;;;;;;11.02;9.27;;;;;;;;;;5045122;28;20079;-73
2023/04/17 04:52:49;;;;;;;9.55;7.55;;;;;;;;;;5046027;28;20051;-73
2023/04/17 04:55:16;;;;;;;9.77;7.43;;;;;;;;;;5044090;28;20522;-73
2023/04/17 04:57:42;;;;;;;8.02;6.78;;;;;;;;;;5044530;28;21042;-73
2023/04/17 05:00:08;;;;;;;7.05;5.20;;;;;;;;;;5045148;28;20191;-73
2023/04/17 05:02:35;;;;;;;5.47;4.75;;;;;;;;;;5043619;28;20044;-73
2023/04/17 05:05:01;;;;;;;6.32;4.75;;;;;;;;;;5045613;28;20055;-73
2023/04/17 05:07:27;;;;;;;5.05;4.22;;;;;;;;;;5045540;28;20049;-73
2023/04/17 05:09:53;;;;;;;5.10;4.10;;;;;;;;;;5043431;28;20041;-73
2023/04/17 05:12:19;;;;;;;8.13;6.18;;;;;;;;;;5040445;28;20041;-73
2023/04/17 05:14:46;;;;;;;9.32;7.53;;;;;;;;;;5045823;28;20067;-73
2023/04/17 05:17:12;;;;;;;6.78;5.25;;;;;;;;;;5043909;28;20054;-73
2023/04/17 05:19:38;;;;;;;5.63;4.82;;;;;;;;;;5045565;28;20044;-73
2023/04/17 05:22:04;;;;;;;7.47;6.05;;;;;;;;;;5043168;28;20102;-73
2023/04/17 05:24:30;;;;;;;6.20;5.05;;;;;;;;;;5044823;28;20514;-73
2023/04/17 05:26:57;;;;;;;6.80;5.72;;;;;;;;;;5045203;28;20049;-72
2023/04/17 05:29:24;;;;;;;6.47;4.78;;;;;;;;;;5045029;28;20044;-73
2023/04/17 05:31:50;;;;;;;6.25;5.20;;;;;;;;;;5042812;28;20053;-73
2023/04/17 05:34:16;;;;;;;4.07;3.55;;;;;;;;;;5043600;28;20102;-73
2023/04/17 05:36:42;;;;;;;3.90;3.42;;;;;;;;;;5044632;28;20528;-73
2023/04/17 05:39:08;;;;;;;3.85;3.45;;;;;;;;;;5043924;28;20053;-73
2023/04/17 05:41:34;;;;;;;3.53;3.22;;;;;;;;;;5043234;28;20495;-73
2023/04/17 05:44:00;;;;;;;3.80;3.40;;;;;;;;;;5044450;28;20053;-73
2023/04/17 05:46:26;;;;;;;4.38;3.80;;;;;;;;;;5044615;28;20115;-72
2023/04/17 05:48:52;;;;;;;4.88;4.00;;;;;;;;;;5043903;28;20925;-73
2023/04/17 05:51:18;;;;;;;5.18;4.68;;;;;;;;;;5044863;28;20033;-73
2023/04/17 05:53:44;;;;;;;5.03;4.40;;;;;;;;;;5043497;28;20053;-73
2023/04/17 05:56:10;;;;;;;3.47;3.15;;;;;;;;;;5043688;28;20521;-73
2023/04/17 05:58:37;;;;;;;3.38;3.03;;;;;;;;;;5038829;28;20083;-73
2023/04/17 06:01:05;;;;;;;4.40;4.00;;;;;;;;;;5044312;28;20087;-73
2023/04/17 06:03:31;;;;;;;7.10;6.20;;;;;;;;;;5044676;28;20044;-73
2023/04/17 06:05:58;;;;;;;6.88;5.07;;;;;;;;;;5042958;28;20033;-73
2023/04/17 06:08:24;;;;;;;4.25;3.85;;;;;;;;;;5044131;28;20110;-73
2023/04/17 06:10:51;;;;;;;8.18;6.88;;;;;;;;;;5042060;28;20048;-73
2023/04/17 06:13:17;;;;;;;6.15;5.07;;;;;;;;;;5042934;28;20124;-73
2023/04/17 06:15:43;;;;;;;6.10;4.80;;;;;;;;;;5040831;28;20041;-73
2023/04/17 06:18:09;;;;;;;4.88;4.00;;;;;;;;;;5042493;28;20049;-73
2023/04/17 06:20:35;;;;;;;4.63;4.18;;;;;;;;;;5043129;28;20510;-73
2023/04/17 06:23:01;;;;;;;4.93;4.47;;;;;;;;;;5041533;28;20056;-73
2023/04/17 06:25:27;;;;;;;4.40;4.00;;;;;;;;;;5041696;28;20098;-72
2023/04/17 06:27:53;;;;;;;6.10;4.68;;;;;;;;;;5043409;28;20041;-73
2023/04/17 06:30:19;;;;;;;6.43;5.13;;;;;;;;;;5042825;28;20040;-74
2023/04/17 06:32:45;;;;;;;6.40;5.78;;;;;;;;;;5037256;28;20109;-74
2023/04/17 06:35:11;;;;;;;6.38;5.72;;;;;;;;;;5033630;28;20044;-73
2023/04/17 06:37:37;;;;;;;10.18;8.77;;;;;;;;;;5040317;28;20048;-74
2023/04/17 06:40:03;;;;;;;8.43;7.53;;;;;;;;;;5042437;28;20379;-74
2023/04/17 06:42:32;;;;;;;6.25;5.60;;;;;;;;;;5039722;28;20570;-74
2023/04/17 06:44:58;;;;;;;8.75;7.90;;;;;;;;;;5037933;28;20036;-73
2023/04/17 06:47:24;;;;;;;9.23;8.27;;;;;;;;;;5036335;28;20083;-74
2023/04/17 06:49:50;;;;;;;10.25;9.02;;;;;;;;;;5043479;28;20060;-74
2023/04/17 06:52:19;;;;;;;8.13;7.40;;;;;;;;;;5044079;28;20037;-73
2023/04/17 06:54:45;;;;;;;8.55;7.75;;;;;;;;;;5042517;28;20044;-73
2023/04/17 06:57:11;;;;;;;9.90;8.90;;;;;;;;;;5044021;28;20041;-74
2023/04/17 06:59:37;;;;;;;7.65;6.95;;;;;;;;;;5043417;28;20048;-74
2023/04/17 07:02:03;;;;;;;10.07;8.40;;;;;;;;;;5040513;28;20047;-74
2023/04/17 07:04:30;;;;;;;12.45;11.15;;;;;;;;;;5043311;28;20766;-74
2023/04/17 07:06:56;;;;;;;14.30;12.80;;;;;;;;;;5043433;28;20092;-75
2023/04/17 07:09:23;;;;;;;10.98;9.88;;;;;;;;;;5041668;28;20053;-76
2023/04/17 07:11:50;;;;;;;8.43;7.63;;;;;;;;;;5041578;28;20307;-76
2023/04/17 07:14:16;;;;;;;7.38;6.68;;;;;;;;;;5038220;28;20036;-75
2023/04/17 07:16:42;;;;;;;6.03;5.22;;;;;;;;;;5040467;28;20077;-75
2023/04/17 07:19:08;;;;;;;7.07;6.47;;;;;;;;;;5036878;28;20562;-73
2023/04/17 07:21:34;;;;;;;10.80;9.75;;;;;;;;;;5042593;28;20127;-72
2023/04/17 07:24:00;;;;;;;8.40;7.60;;;;;;;;;;5042565;28;20171;-76
2023/04/17 07:26:26;;;;;;;9.65;8.70;;;;;;;;;;5041855;28;20602;-69
2023/04/17 07:28:52;;;;;;;9.07;8.18;;;;;;;;;;5035189;28;20060;-71
2023/04/17 07:31:18;;;;;;;8.30;7.47;;;;;;;;;;5024630;28;20388;-72
2023/04/17 07:33:44;;;;;;;9.27;8.32;;;;;;;;;;5038968;28;20092;-70
2023/04/17 07:36:10;;;;;;;7.70;7.07;;;;;;;;;;5043859;28;20076;-70
2023/04/17 07:38:37;;;;;;;10.45;9.35;;;;;;;;;;5044878;28;20045;-72
2023/04/17 07:41:03;;;;;;;9.15;8.30;;;;;;;;;;5044376;28;20072;-71
2023/04/17 07:43:29;;;;;;;7.18;6.43;;;;;;;;;;5043742;28;20621;-65
2023/04/17 07:45:55;;;;;;;6.32;5.72;;;;;;;;;;5041649;28;20040;-66
2023/04/17 07:48:22;;;;;;;8.35;7.57;;;;;;;;;;5042379;28;20053;-66
2023/04/17 07:50:48;;;;;;;10.88;9.77;;;;;;;;;;5042591;28;20053;-66
2023/04/17 07:53:15;;;;;;;10.65;9.55;;;;;;;;;;5042033;28;20556;-66
2023/04/17 07:55:41;;;;;;;8.57;7.80;;;;;;;;;;5043750;28;20045;-66
2023/04/17 07:58:08;;;;;;;6.93;6.22;;;;;;;;;;5043213;28;20126;-66
2023/04/17 08:00:34;;;;;;;6.65;5.95;;;;;;;;;;5047801;28;20048;-66
2023/04/17 08:03:00;;;;;;;7.10;6.40;;;;;;;;;;5043920;28;20518;-66
2023/04/17 08:05:26;;;;;;;7.25;6.45;;;;;;;;;;5045870;28;20049;-66
2023/04/17 08:07:52;;;;;;;6.20;5.63;;;;;;;;;;5047057;28;20059;-66
2023/04/17 08:10:18;;;;;;;5.82;5.32;;;;;;;;;;5047745;28;20655;-66
2023/04/17 08:12:44;;;;;;;7.85;7.15;;;;;;;;;;5047203;28;20791;-65
2023/04/17 08:15:11;;;;;;;7.97;7.28;;;;;;;;;;5046257;28;20048;-66
2023/04/17 08:17:37;;;;;;;7.05;6.45;;;;;;;;;;5044682;28;20045;-64
2023/04/17 08:20:10;;;;;;;8.20;7.40;;;;;;;;;;5038013;28;20041;-66
2023/04/17 08:22:42;;;;;;;7.18;6.57;;;;;;;;;;5039941;28;20549;-66
2023/04/17 08:25:09;;;;;;;7.40;6.63;;;;;;;;;;5045355;28;20041;-66
2023/04/17 08:27:36;;;;;;;8.70;7.88;;;;;;;;;;5045304;28;20079;-67
2023/04/17 08:30:03;;;;;;;7.38;6.68;;;;;;;;;;5042764;28;20402;-67
2023/04/17 08:32:29;;;;;;;9.93;9.00;;;;;;;;;;5041465;28;20150;-67
2023/04/17 08:34:57;;;;;;;11.32;10.20;;;;;;;;;;5045105;28;20049;-67
2023/04/17 08:37:23;;;;;;;9.68;8.77;;;;;;;;;;5039220;28;20052;-67
2023/04/17 08:39:51;;;;;;;9.30;8.50;;;;;;;;;;5039743;28;20128;-67
2023/04/17 08:42:17;;;;;;;11.45;10.32;;;;;;;;;;5040314;28;20056;-67
2023/04/17 08:44:43;;;;;;;10.18;9.27;;;;;;;;;;5041319;28;20033;-67
2023/04/17 08:47:09;;;;;;;9.65;8.73;;;;;;;;;;5042282;28;20269;-67
2023/04/17 08:49:35;;;;;;;12.57;10.52;;;;;;;;;;5044697;28;20489;-67
2023/04/17 08:52:03;;;;;;;11.52;10.40;;;;;;;;;;5043140;28;20518;-66
2023/04/17 08:54:29;;;;;;;10.90;9.80;;;;;;;;;;5044897;28;20079;-67
2023/04/17 08:56:56;;;;;;;12.07;10.75;;;;;;;;;;5041837;28;20091;-67
2023/04/17 08:59:22;;;;;;;11.65;10.50;;;;;;;;;;5042026;28;20044;-67
2023/04/17 09:02:05;;;;;;;9.98;9.18;;;;;;;;;;5039307;28;20076;-67
2023/04/17 09:04:37;;;;;;;8.93;8.02;;;;;;;;;;5042359;28;20055;-67
2023/04/17 09:07:03;;;;;;;9.00;8.20;;;;;;;;;;5046885;28;20059;-67
2023/04/17 09:09:52;;;;;;;11.35;10.35;;;;;;;;;;5043306;28;20590;-66
2023/04/17 09:12:22;;;;;;;8.68;7.90;;;;;;;;;;5045214;28;20045;-66
2023/04/17 09:14:48;;;;;;;9.00;8.15;;;;;;;;;;5042904;28;20553;-66
2023/04/17 09:17:18;;;;;;;9.73;8.82;;;;;;;;;;5043009;28;20496;-66
2023/04/17 09:20:06;;;;;;;13.23;10.82;;;;;;;;;;5037143;28;20510;-66
2023/04/17 09:22:32;;;;;;;10.57;9.57;;;;;;;;;;5044608;28;20685;-67
2023/04/17 09:24:58;;;;;;;11.48;9.23;;;;;;;;;;5045886;28;20040;-66
2023/04/17 09:27:25;;;;;;;9.90;8.90;;;;;;;;;;5044610;28;20080;-67
2023/04/17 09:29:59;;;;;;;8.75;7.82;;;;;;;;;;5045181;28;20609;-66
2023/04/17 09:32:26;;;;;;;8.82;8.02;;;;;;;;;;5045142;28;20068;-66
2023/04/17 09:34:52;;;;;;;10.15;9.15;;;;;;;;;;5043120;28;20135;-66
2023/04/17 09:37:19;;;;;;;9.77;8.88;;;;;;;;;;5037986;28;20048;-67
2023/04/17 09:40:06;;;;;;;10.13;8.82;;;;;;;;;;5043887;28;20057;-67
2023/04/17 09:42:32;;;;;;;10.88;9.55;;;;;;;;;;5043663;28;20495;-67
2023/04/17 09:45:17;;;;;;;9.30;8.40;;;;;;;;;;5043958;28;20095;-67
2023/04/17 09:47:44;;;;;;;8.18;7.38;;;;;;;;;;5042645;28;20053;-67
2023/04/17 09:50:11;;;;;;;7.25;6.55;;;;;;;;;;5044517;28;20486;-67
2023/04/17 09:52:37;;;;;;;6.57;5.82;;;;;;;;;;5045080;28;20433;-67
2023/04/17 09:55:06;;;;;;;8.10;7.18;;;;;;;;;;5045129;28;20114;-67
2023/04/17 09:57:32;;;;;;;6.63;6.03;;;;;;;;;;5044632;28;20059;-67
2023/04/17 10:00:03;;;;;;;7.90;7.10;;;;;;;;;;5044946;28;20049;-67
2023/04/17 10:02:29;;;;;;;7.53;6.78;;;;;;;;;;5042928;28;20077;-67
2023/04/17 10:04:55;;;;;;;12.23;8.98;;;;;;;;;;5050348;28;20052;-67
2023/04/17 10:07:21;;;;;;;9.27;8.25;;;;;;;;;;5044849;28;20052;-67
2023/04/17 10:09:47;;;;;;;9.48;8.40;;;;;;;;;;5043128;28;20053;-67
2023/04/17 10:12:18;;;;;;;8.68;7.78;;;;;;;;;;5043115;28;20045;-67
2023/04/17 10:14:45;;;;;;;10.45;8.57;;;;;;;;;;5044302;28;20045;-67
2023/04/17 10:17:30;;;;;;;8.40;7.60;;;;;;;;;;5043528;28;20464;-67
2023/04/17 10:19:56;;;;;;;7.32;6.70;;;;;;;;;;5041965;28;20049;-67
2023/04/17 10:22:23;;;;;;;10.43;9.27;;;;;;;;;;5042981;28;20048;-67
2023/04/17 10:24:50;;;;;;;8.88;7.97;;;;;;;;;;5043541;28;20913;-67
2023/04/17 10:27:26;;;;;;;7.53;6.78;;;;;;;;;;5039491;28;20053;-67
2023/04/17 10:29:55;;;;;;;6.40;5.80;;;;;;;;;;5044699;28;20048;-67
2023/04/17 10:32:26;;;;;;;10.45;9.00;;;;;;;;;;5042768;28;20114;-67
2023/04/17 10:34:56;;;;;;;12.85;10.93;;;;;;;;;;5039010;28;20053;-67
2023/04/17 10:37:43;;;;;;;10.23;9.23;;;;;;;;;;5041143;28;20041;-67
2023/04/17 10:40:10;;;;;;;9.27;8.38;;;;;;;;;;5035700;28;20140;-67
2023/04/17 10:42:36;;;;;;;9.77;8.88;;;;;;;;;;5037541;28;20462;-67
2023/04/17 10:45:05;;;;;;;8.63;7.82;;;;;;;;;;5043708;28;20748;-67
2023/04/17 10:47:32;;;;;;;7.90;7.20;;;;;;;;;;5042546;28;20581;-67
2023/04/17 10:49:58;;;;;;;7.57;6.47;;;;;;;;;;5044413;28;20116;-67
2023/04/17 10:52:33;;;;;;;8.00;7.20;;;;;;;;;;5044104;28;20541;-67
2023/04/17 10:55:10;;;;;;;9.60;8.57;;;;;;;;;;5036308;28;20051;-67
2023/04/17 10:58:00;;;;;;;10.27;9.27;;;;;;;;;;5042756;28;20041;-67
2023/04/17 11:00:29;;;;;;;9.20;8.18;;;;;;;;;;5038504;28;20084;-68
2023/04/17 11:02:55;;;;;;;9.50;8.52;;;;;;;;;;5033301;28;20053;-67
2023/04/17 11:05:22;;;;;;;9.23;8.32;;;;;;;;;;5041328;28;20044;-66
2023/04/17 11:07:52;;;;;;;11.52;10.32;;;;;;;;;;5039824;28;20055;-66
2023/04/17 11:10:22;;;;;;;12.43;11.10;;;;;;;;;;5043665;28;20045;-66
2023/04/17 11:12:49;;;;;;;13.30;11.30;;;;;;;;;;5043405;28;20497;-66
2023/04/17 11:15:18;;;;;;;17.70;12.38;;;;;;;;;;5043424;28;20045;-67
2023/04/17 11:17:47;;;;;;;12.40;11.20;;;;;;;;;;5043320;28;20045;-66
2023/04/17 11:20:17;;;;;;;11.98;10.23;;;;;;;;;;5043187;28;20060;-66
2023/04/17 11:22:44;;;;;;;14.07;12.07;;;;;;;;;;5041001;28;20509;-67
2023/04/17 11:25:18;;;;;;;11.85;10.55;;;;;;;;;;5044119;28;20045;-67
2023/04/17 11:27:44;;;;;;;10.35;9.05;;;;;;;;;;5038691;28;20048;-67
2023/04/17 11:30:11;;;;;;;9.90;8.98;;;;;;;;;;5031170;28;20777;-67
2023/04/17 11:32:37;;;;;;;11.27;10.07;;;;;;;;;;5035564;28;20056;-67
2023/04/17 11:35:04;;;;;;;12.77;10.65;;;;;;;;;;5037113;28;20056;-66
2023/04/17 11:37:30;;;;;;;12.02;10.88;;;;;;;;;;5034947;28;20408;-67
2023/04/17 11:40:04;;;;;;;11.48;10.30;;;;;;;;;;5029433;28;20060;-66
2023/04/17 11:42:30;;;;;;;13.27;11.82;;;;;;;;;;5046774;28;20060;-67
2023/04/17 11:45:03;;;;;;;12.15;10.95;;;;;;;;;;5036573;28;20046;-67
2023/04/17 11:47:30;;;;;;;11.48;10.40;;;;;;;;;;5027377;28;20057;-67
2023/04/17 11:49:56;;;;;;;11.32;10.23;;;;;;;;;;5027648;28;20045;-66
2023/04/17 11:52:22;;;;;;;13.10;10.38;;;;;;;;;;5028232;28;20049;-67
2023/04/17 11:54:48;;;;;;;11.95;9.93;;;;;;;;;;5027926;28;20041;-67
2023/04/17 11:57:14;;;;;;;12.98;11.00;;;;;;;;;;5033080;28;20553;-67
2023/04/17 11:59:41;;;;;;;11.45;10.25;;;;;;;;;;5046506;28;20067;-67
2023/04/17 12:02:07;;;;;;;10.82;9.85;;;;;;;;;;5048187;28;20376;-66
2023/04/17 12:04:35;;;;;;;12.50;11.23;;;;;;;;;;5047905;28;20056;-66
2023/04/17 12:07:02;;;;;;;14.18;12.70;;;;;;;;;;5047828;28;20504;-66
2023/04/17 12:09:30;;;;;;;10.88;9.77;;;;;;;;;;5047739;28;20045;-66
2023/04/17 12:12:00;;;;;;;8.70;7.90;;;;;;;;;;5044124;28;20084;-66
2023/04/17 12:14:26;;;;;;;13.07;11.75;;;;;;;;;;5047034;28;20045;-66
2023/04/17 12:16:52;;;;;;;17.10;13.02;;;;;;;;;;5032762;28;20081;-66
2023/04/17 12:19:18;;;;;;;13.68;12.27;;;;;;;;;;5026315;28;20077;-66
2023/04/17 12:21:48;;;;;;;13.35;11.60;;;;;;;;;;5027610;28;20527;-66
2023/04/17 12:24:14;;;;;;;12.73;10.90;;;;;;;;;;5026078;28;20132;-66
2023/04/17 12:26:46;;;;;;;14.85;11.40;;;;;;;;;;5027226;28;20045;-66
2023/04/17 12:29:13;;;;;;;;;;;;;;;;;;5037738;28;20056;-66
2023/04/17 12:31:39;;;;;;;11.52;10.38;;;;;;;;;;5044414;28;19985;-67
2023/04/17 12:34:05;;;;;;;11.43;10.25;;;;;;;;;;5038258;28;20450;-66
2023/04/17 12:36:31;;;;;;;11.07;10.00;;;;;;;;;;5035643;28;20491;-67
2023/04/17 12:38:57;;;;;;;13.30;11.90;;;;;;;;;;5037008;28;20048;-66
2023/04/17 12:41:25;;;;;;;12.23;11.02;;;;;;;;;;5036194;28;20037;-66
2023/04/17 12:43:51;;;;;;;11.27;10.18;;;;;;;;;;5032797;28;20068;-66
2023/04/17 12:46:17;;;;;;;14.13;11.60;;;;;;;;;;5033023;28;20033;-66
2023/04/17 12:48:43;;;;;;;13.80;11.98;;;;;;;;;;5039436;28;20041;-66
2023/04/17 12:51:09;;;;;;;10.73;9.73;;;;;;;;;;5043012;28;20048;-66
2023/04/17 12:53:35;;;;;;;11.25;10.13;;;;;;;;;;5033916;28;20631;-66
2023/04/17 12:56:01;;;;;;;9.35;8.45;;;;;;;;;;5042389;28;20632;-66
2023/04/17 12:58:27;;;;;;;11.10;10.07;;;;;;;;;;5040706;28;20045;-66
2023/04/17 13:00:53;;;;;;;10.32;9.32;;;;;;;;;;5035618;28;20052;-66
2023/04/17 13:03:19;;;;;;;10.07;9.07;;;;;;;;;;5040618;28;20041;-66
2023/04/17 13:05:46;;;;;;;10.98;9.57;;;;;;;;;;5044706;28;20474;-66
2023/04/17 13:08:13;;;;;;;13.85;10.80;;;;;;;;;;5040141;28;20117;-66
2023/04/17 13:10:41;;;;;;;11.52;10.43;;;;;;;;;;5039036;28;20072;-66
2023/04/17 13:13:07;;;;;;;10.52;9.45;;;;;;;;;;5040359;28;20040;-66
2023/04/17 13:15:33;;;;;;;8.68;7.85;;;;;;;;;;5043863;28;20075;-67
2023/04/17 13:17:59;;;;;;;9.30;8.38;;;;;;;;;;5043142;28;20395;-67
2023/04/17 13:20:25;;;;;;;11.88;9.65;;;;;;;;;;5044098;28;20088;-65
2023/04/17 13:22:51;;;;;;;9.73;8.82;;;;;;;;;;5030510;28;20110;-65
2023/04/17 13:25:17;;;;;;;12.73;10.93;;;;;;;;;;5046275;28;20059;-65
2023/04/17 13:27:43;;;;;;;9.52;8.52;;;;;;;;;;5043253;28;20049;-65
2023/04/17 13:30:10;;;;;;;10.85;9.70;;;;;;;;;;5037715;28;20098;-65
2023/04/17 13:32:38;;;;;;;8.95;8.15;;;;;;;;;;5041871;28;20057;-65
2023/04/17 13:35:04;;;;;;;13.50;9.85;;;;;;;;;;5034472;28;20045;-65
2023/04/17 13:37:30;;;;;;;10.90;9.70;;;;;;;;;;5040391;28;20045;-65
2023/04/17 13:39:58;;;;;;;10.30;9.30;;;;;;;;;;5038332;28;20045;-65
2023/04/17 13:42:24;;;;;;;10.50;9.38;;;;;;;;;;5038550;28;20045;-65
2023/04/17 13:44:50;;;;;;;8.93;8.02;;;;;;;;;;5038974;28;20514;-67
2023/04/17 13:47:16;;;;;;;10.02;8.88;;;;;;;;;;5032367;28;20133;-64
2023/04/17 13:49:42;;;;;;;9.88;8.93;;;;;;;;;;5041188;28;20479;-64
2023/04/17 13:52:09;;;;;;;9.55;7.80;;;;;;;;;;5042788;28;20049;-64
2023/04/17 13:54:34;;;;;;;9.40;8.05;;;;;;;;;;5039879;28;20037;-64
2023/04/17 13:57:01;;;;;;;11.98;10.02;;;;;;;;;;5033140;28;20041;-64
2023/04/17 13:59:27;;;;;;;9.27;8.38;;;;;;;;;;5039120;28;20053;-64
2023/04/17 14:01:53;;;;;;;9.52;8.65;;;;;;;;;;5041151;28;20406;-65
2023/04/17 14:04:19;;;;;;;9.32;8.48;;;;;;;;;;5040333;28;20052;-64
2023/04/17 14:06:48;;;;;;;9.50;8.60;;;;;;;;;;5043180;28;20560;-65
2023/04/17 14:09:15;;;;;;;9.10;8.18;;;;;;;;;;5044116;28;20086;-65
2023/04/17 14:11:41;;;;;;;10.15;9.18;;;;;;;;;;5044649;28;20098;-65
2023/04/17 14:14:07;;;;;;;9.40;8.60;;;;;;;;;;5044912;28;20048;-65
2023/04/17 14:16:33;;;;;;;10.45;9.45;;;;;;;;;;5045594;28;20044;-65
2023/04/17 14:18:59;;;;;;;8.88;7.97;;;;;;;;;;5044412;28;20041;-65
2023/04/17 14:21:26;;;;;;;10.45;9.35;;;;;;;;;;5045376;28;20415;-64
2023/04/17 14:23:52;;;;;;;10.10;9.10;;;;;;;;;;5041465;28;20048;-65
2023/04/17 14:26:18;;;;;;;9.27;8.38;;;;;;;;;;5044523;28;20119;-65
2023/04/17 14:28:44;;;;;;;9.10;8.23;;;;;;;;;;5043804;28;20047;-65
2023/04/17 14:31:10;;;;;;;9.25;8.30;;;;;;;;;;5042165;28;20044;-65
2023/04/17 14:33:36;;;;;;;9.00;8.10;;;;;;;;;;5043460;28;20049;-65